createdAt,value
2023-02-25T17:23:30.148Z,23.10
2023-02-25T17:25:57.014Z,23.00
2023-02-25T17:28:29.167Z,23.00
2023-02-25T17:31:12.826Z,23.00
2023-02-25T17:33:47.344Z,23.00
2023-02-25T17:36:15.409Z,23.00
2023-02-25T17:38:43.701Z,23.00
2023-02-25T17:41:17.398Z,23.10
2023-02-25T17:43:43.946Z,23.10
2023-02-25T17:46:13.497Z,23.10
2023-02-25T17:48:43.168Z,23.20
2023-02-25T17:51:10.593Z,23.20
2023-02-25T17:53:39.256Z,23.20
2023-02-25T17:56:16.475Z,23.30
2023-02-25T17:58:43.932Z,23.50
2023-02-25T18:01:24.267Z,23.60
2023-02-25T18:11:57.395Z,24.00
2023-02-25T18:14:39.644Z,23.80
2023-02-25T18:17:16.581Z,23.70
2023-02-25T18:19:46.106Z,23.60
2023-02-25T18:22:30.775Z,23.60
2023-02-25T18:25:00.239Z,23.50
2023-02-25T18:27:32.743Z,23.50
2023-02-25T18:30:21.244Z,23.50
2023-02-25T18:32:48.132Z,23.50
2023-02-25T18:35:15.337Z,23.50
2023-02-25T18:37:43.074Z,23.40
2023-02-25T18:40:31.876Z,23.40
2023-02-25T18:42:59.787Z,23.40
2023-02-25T18:45:28.786Z,23.30
2023-02-25T18:48:00.411Z,23.30
2023-02-25T18:50:30.497Z,23.30
2023-02-25T18:52:57.772Z,23.30
2023-02-25T18:55:29.719Z,23.30
2023-02-25T18:57:56.355Z,23.20
2023-02-25T19:00:24.472Z,23.20
2023-02-25T19:02:58.028Z,23.20
2023-02-25T19:05:25.980Z,23.20
2023-02-25T19:07:52.791Z,23.10
2023-02-25T19:10:25.796Z,23.10
2023-02-25T19:13:04.149Z,23.10
2023-02-25T19:15:30.781Z,23.10
2023-02-25T19:17:57.350Z,23.00
2023-02-25T19:20:24.226Z,23.00
2023-02-25T19:22:53.094Z,23.00
2023-02-25T19:25:27.033Z,23.10
2023-02-25T19:27:55.710Z,23.10
2023-02-25T19:30:32.007Z,23.10
2023-02-25T19:33:02.356Z,23.10
2023-02-25T19:35:34.231Z,23.10
2023-02-25T19:38:00.923Z,23.10
2023-02-25T19:40:29.024Z,23.20
2023-02-25T19:42:56.015Z,23.30
2023-02-25T19:45:24.030Z,23.20
2023-02-25T19:47:51.862Z,23.20
